Huvudsida
METAR-TAF:

METAR-TAF

Flygplatser :

Kotzebue, Alaska, USA

latitud: 66-53-04N, longitud: 162-35-54W, höjd: 3 m

Aktuellt väderrapport

Denna rapport gjordes för 1 timme och 12 minuter sedan, klockan 13:53 UTC
Vind 5 kt från ost/nordost
Temperatur 9°C
Fuktighet 100%
Tryck 1013 hPa
Sikt: 16.1 km
Klar himmel

METAR: PAOT 251353Z AUTO 06005KT 10SM CLR 09/09 A2990 RMK AO2 SLP126 T00890089 TSNO

Tid: 07:05 (15:05 UTC)

Väderprognos

Denna rapport gjordes för 3 timmar och 26 minuter sedan, klockan 11:39 UTC
Prognos gäller från 25 kl. 12 UTC till 26 kl. 12 UTC
Vind 6 kt från ost/sydost
Sikt: 10 km
Klar himmel
Från 25 kl. 1900 UTC
Vind 12 kt från sydost
Sikt: 10 km
Brutna moln på en höjd av 25000 ft
Från 26 kl. 0300 UTC
Vind 9 kt från syd/sydost
Sikt: 10 km
Brutna moln på en höjd av 8000 ft
skurar i närheten,

TAF: PAOT 251139Z 2512/2612 11006KT P6SM SKC FM251900 13012KT P6SM BKN250 FM260300 15009KT P6SM VCSH BKN080

Aktuella väderrapporter och prognoser från 4000 flygplatser (METAR- och TAF-rapporter).

De tillgängliga stationerna syns som gula och röda prickar på kartan.

För musen över prickarna för att se namnen på stationerna.

Klicka sedan för att få väderrapporter och prognoser.

För att ändra kartan: Klicka på de gröna knapparna med ett svart kors på för att zooma in; den gröna knappen med ett streck på för att zooma ut; eller på de gröna pilarna för angränsande kartor.


METAR-TAF: